sensor_id;sensor_type;location;lat;lon;timestamp;P1;durP1;ratioP1;P2;durP2;ratioP2
3781;SDS011;6881;49.962;7.718;2024-03-23T00:53:45;10.07;;;6.57;;
3781;SDS011;6881;49.962;7.718;2024-03-23T00:56:11;8.90;;;6.00;;
3781;SDS011;6881;49.962;7.718;2024-03-23T00:58:36;12.03;;;6.67;;
3781;SDS011;6881;49.962;7.718;2024-03-23T01:01:02;11.77;;;7.30;;
3781;SDS011;6881;49.962;7.718;2024-03-23T01:03:28;8.30;;;5.93;;
3781;SDS011;6881;49.962;7.718;2024-03-23T01:06:01;7.40;;;6.70;;
3781;SDS011;6881;49.962;7.718;2024-03-23T01:08:28;9.30;;;5.63;;
3781;SDS011;6881;49.962;7.718;2024-03-23T01:10:53;8.63;;;5.50;;
3781;SDS011;6881;49.962;7.718;2024-03-23T01:13:22;5.80;;;4.80;;
3781;SDS011;6881;49.962;7.718;2024-03-23T01:15:48;7.30;;;5.50;;
3781;SDS011;6881;49.962;7.718;2024-03-23T01:18:14;7.03;;;5.70;;
3781;SDS011;6881;49.962;7.718;2024-03-23T01:20:39;10.60;;;6.03;;
3781;SDS011;6881;49.962;7.718;2024-03-23T01:23:04;8.23;;;5.87;;
3781;SDS011;6881;49.962;7.718;2024-03-23T01:25:30;7.77;;;6.27;;
3781;SDS011;6881;49.962;7.718;2024-03-23T01:27:55;9.60;;;6.10;;
3781;SDS011;6881;49.962;7.718;2024-03-23T01:30:20;7.27;;;5.60;;
3781;SDS011;6881;49.962;7.718;2024-03-23T01:32:46;8.40;;;6.20;;
3781;SDS011;6881;49.962;7.718;2024-03-23T01:35:12;10.07;;;7.63;;
3781;SDS011;6881;49.962;7.718;2024-03-23T01:37:37;17.20;;;7.60;;
3781;SDS011;6881;49.962;7.718;2024-03-23T01:40:02;10.87;;;8.47;;
3781;SDS011;6881;49.962;7.718;2024-03-23T01:42:29;9.83;;;7.00;;
3781;SDS011;6881;49.962;7.718;2024-03-23T01:44:54;13.33;;;7.60;;
3781;SDS011;6881;49.962;7.718;2024-03-23T01:47:19;7.70;;;6.40;;
3781;SDS011;6881;49.962;7.718;2024-03-23T01:49:45;8.30;;;7.07;;
3781;SDS011;6881;49.962;7.718;2024-03-23T01:52:10;9.10;;;7.17;;
3781;SDS011;6881;49.962;7.718;2024-03-23T01:54:35;12.00;;;8.43;;
3781;SDS011;6881;49.962;7.718;2024-03-23T01:57:01;10.00;;;7.40;;
3781;SDS011;6881;49.962;7.718;2024-03-23T01:59:26;9.53;;;7.50;;
3781;SDS011;6881;49.962;7.718;2024-03-23T02:01:51;8.97;;;6.80;;
3781;SDS011;6881;49.962;7.718;2024-03-23T02:04:17;10.67;;;7.90;;
3781;SDS011;6881;49.962;7.718;2024-03-23T02:06:42;9.40;;;6.90;;
3781;SDS011;6881;49.962;7.718;2024-03-23T02:09:07;13.80;;;7.20;;
3781;SDS011;6881;49.962;7.718;2024-03-23T02:11:32;10.60;;;7.90;;
3781;SDS011;6881;49.962;7.718;2024-03-23T02:13:58;9.23;;;7.00;;
3781;SDS011;6881;49.962;7.718;2024-03-23T02:16:23;14.53;;;7.77;;
3781;SDS011;6881;49.962;7.718;2024-03-23T02:18:48;11.20;;;9.83;;
3781;SDS011;6881;49.962;7.718;2024-03-23T02:21:15;11.57;;;7.40;;
3781;SDS011;6881;49.962;7.718;2024-03-23T02:23:40;11.97;;;9.10;;
3781;SDS011;6881;49.962;7.718;2024-03-23T02:26:05;11.80;;;9.47;;
3781;SDS011;6881;49.962;7.718;2024-03-23T02:28:31;17.90;;;12.73;;
3781;SDS011;6881;49.962;7.718;2024-03-23T02:30:56;20.10;;;15.07;;
3781;SDS011;6881;49.962;7.718;2024-03-23T02:33:22;22.87;;;14.70;;
3781;SDS011;6881;49.962;7.718;2024-03-23T02:35:47;23.27;;;15.70;;
3781;SDS011;6881;49.962;7.718;2024-03-23T02:38:12;24.87;;;15.53;;
3781;SDS011;6881;49.962;7.718;2024-03-23T02:40:38;27.97;;;17.90;;
3781;SDS011;6881;49.962;7.718;2024-03-23T02:43:03;25.90;;;16.93;;
3781;SDS011;6881;49.962;7.718;2024-03-23T02:45:29;25.20;;;15.90;;
3781;SDS011;6881;49.962;7.718;2024-03-23T02:47:54;22.87;;;16.20;;
3781;SDS011;6881;49.962;7.718;2024-03-23T02:50:20;21.77;;;14.67;;
3781;SDS011;6881;49.962;7.718;2024-03-23T02:52:45;21.67;;;14.60;;
3781;SDS011;6881;49.962;7.718;2024-03-23T02:55:11;21.90;;;14.90;;
3781;SDS011;6881;49.962;7.718;2024-03-23T02:57:36;23.80;;;14.43;;
3781;SDS011;6881;49.962;7.718;2024-03-23T03:00:02;22.67;;;14.23;;
3781;SDS011;6881;49.962;7.718;2024-03-23T03:02:28;27.83;;;14.77;;
3781;SDS011;6881;49.962;7.718;2024-03-23T03:04:53;21.83;;;13.43;;
3781;SDS011;6881;49.962;7.718;2024-03-23T03:07:18;20.63;;;14.03;;
3781;SDS011;6881;49.962;7.718;2024-03-23T03:09:44;21.67;;;13.60;;
3781;SDS011;6881;49.962;7.718;2024-03-23T03:12:09;19.30;;;14.80;;
3781;SDS011;6881;49.962;7.718;2024-03-23T03:14:34;19.97;;;12.87;;
3781;SDS011;6881;49.962;7.718;2024-03-23T03:17:00;25.07;;;14.60;;
3781;SDS011;6881;49.962;7.718;2024-03-23T03:19:25;24.93;;;15.70;;
3781;SDS011;6881;49.962;7.718;2024-03-23T03:21:51;26.90;;;16.90;;
3781;SDS011;6881;49.962;7.718;2024-03-23T03:24:16;22.33;;;13.40;;
3781;SDS011;6881;49.962;7.718;2024-03-23T03:26:42;15.40;;;10.23;;
3781;SDS011;6881;49.962;7.718;2024-03-23T03:29:07;11.30;;;7.90;;
3781;SDS011;6881;49.962;7.718;2024-03-23T03:31:32;8.53;;;7.10;;
3781;SDS011;6881;49.962;7.718;2024-03-23T03:33:57;8.57;;;5.97;;
3781;SDS011;6881;49.962;7.718;2024-03-23T03:36:23;8.97;;;6.83;;
3781;SDS011;6881;49.962;7.718;2024-03-23T03:38:48;7.97;;;5.97;;
3781;SDS011;6881;49.962;7.718;2024-03-23T03:41:13;8.97;;;5.33;;
3781;SDS011;6881;49.962;7.718;2024-03-23T03:43:39;6.87;;;5.50;;
3781;SDS011;6881;49.962;7.718;2024-03-23T03:46:04;5.00;;;4.50;;
3781;SDS011;6881;49.962;7.718;2024-03-23T03:48:29;6.07;;;4.47;;
3781;SDS011;6881;49.962;7.718;2024-03-23T03:50:55;5.17;;;3.40;;
3781;SDS011;6881;49.962;7.718;2024-03-23T03:53:20;3.80;;;3.20;;
3781;SDS011;6881;49.962;7.718;2024-03-23T03:55:46;4.37;;;2.90;;
3781;SDS011;6881;49.962;7.718;2024-03-23T03:58:11;4.77;;;3.43;;
3781;SDS011;6881;49.962;7.718;2024-03-23T04:00:37;3.70;;;2.73;;
3781;SDS011;6881;49.962;7.718;2024-03-23T04:03:02;3.70;;;2.57;;
3781;SDS011;6881;49.962;7.718;2024-03-23T04:05:27;3.33;;;2.23;;
3781;SDS011;6881;49.962;7.718;2024-03-23T04:07:53;3.40;;;2.67;;
3781;SDS011;6881;49.962;7.718;2024-03-23T04:10:19;3.00;;;1.87;;
3781;SDS011;6881;49.962;7.718;2024-03-23T04:12:44;3.07;;;2.00;;
3781;SDS011;6881;49.962;7.718;2024-03-23T04:15:10;3.00;;;2.30;;
3781;SDS011;6881;49.962;7.718;2024-03-23T04:17:35;7.70;;;3.27;;
3781;SDS011;6881;49.962;7.718;2024-03-23T04:20:01;8.50;;;2.90;;
3781;SDS011;6881;49.962;7.718;2024-03-23T04:22:28;3.20;;;2.70;;
3781;SDS011;6881;49.962;7.718;2024-03-23T04:24:56;3.70;;;2.47;;
3781;SDS011;6881;49.962;7.718;2024-03-23T04:27:22;4.80;;;2.93;;
3781;SDS011;6881;49.962;7.718;2024-03-23T04:29:51;4.53;;;3.10;;
3781;SDS011;6881;49.962;7.718;2024-03-23T04:32:16;3.57;;;2.27;;
3781;SDS011;6881;49.962;7.718;2024-03-23T04:34:43;7.27;;;2.90;;
3781;SDS011;6881;49.962;7.718;2024-03-23T04:37:09;5.30;;;3.40;;
3781;SDS011;6881;49.962;7.718;2024-03-23T04:39:35;6.13;;;3.63;;
3781;SDS011;6881;49.962;7.718;2024-03-23T04:42:01;5.27;;;2.97;;
3781;SDS011;6881;49.962;7.718;2024-03-23T04:44:26;6.63;;;3.33;;
3781;SDS011;6881;49.962;7.718;2024-03-23T04:46:51;4.40;;;3.20;;
3781;SDS011;6881;49.962;7.718;2024-03-23T04:49:17;3.47;;;2.60;;
3781;SDS011;6881;49.962;7.718;2024-03-23T04:51:42;4.53;;;2.80;;
3781;SDS011;6881;49.962;7.718;2024-03-23T04:54:11;4.47;;;2.27;;
3781;SDS011;6881;49.962;7.718;2024-03-23T04:56:36;3.57;;;1.57;;
3781;SDS011;6881;49.962;7.718;2024-03-23T04:59:02;2.60;;;1.73;;
3781;SDS011;6881;49.962;7.718;2024-03-23T05:01:29;2.80;;;1.57;;
3781;SDS011;6881;49.962;7.718;2024-03-23T05:03:55;2.73;;;1.07;;
3781;SDS011;6881;49.962;7.718;2024-03-23T05:06:22;3.37;;;1.30;;
3781;SDS011;6881;49.962;7.718;2024-03-23T05:08:47;2.03;;;0.90;;
3781;SDS011;6881;49.962;7.718;2024-03-23T05:11:12;1.97;;;1.47;;
3781;SDS011;6881;49.962;7.718;2024-03-23T05:13:38;1.60;;;1.20;;
3781;SDS011;6881;49.962;7.718;2024-03-23T05:16:03;1.90;;;0.90;;
3781;SDS011;6881;49.962;7.718;2024-03-23T05:18:29;1.70;;;0.80;;
3781;SDS011;6881;49.962;7.718;2024-03-23T05:20:58;0.80;;;0.60;;
3781;SDS011;6881;49.962;7.718;2024-03-23T05:23:23;1.00;;;0.73;;
3781;SDS011;6881;49.962;7.718;2024-03-23T05:25:49;1.50;;;0.80;;
3781;SDS011;6881;49.962;7.718;2024-03-23T05:28:14;1.00;;;0.50;;
3781;SDS011;6881;49.962;7.718;2024-03-23T05:30:40;1.20;;;0.90;;
3781;SDS011;6881;49.962;7.718;2024-03-23T05:33:05;1.13;;;0.70;;
3781;SDS011;6881;49.962;7.718;2024-03-23T05:35:31;1.40;;;0.90;;
3781;SDS011;6881;49.962;7.718;2024-03-23T05:37:57;1.60;;;1.00;;
3781;SDS011;6881;49.962;7.718;2024-03-23T05:40:23;1.73;;;0.70;;
3781;SDS011;6881;49.962;7.718;2024-03-23T05:42:48;2.07;;;1.10;;
3781;SDS011;6881;49.962;7.718;2024-03-23T05:45:14;0.87;;;0.70;;
3781;SDS011;6881;49.962;7.718;2024-03-23T05:47:39;1.30;;;0.83;;
3781;SDS011;6881;49.962;7.718;2024-03-23T05:50:04;2.13;;;1.03;;
3781;SDS011;6881;49.962;7.718;2024-03-23T05:52:30;1.10;;;0.80;;
3781;SDS011;6881;49.962;7.718;2024-03-23T05:54:55;1.57;;;1.00;;
3781;SDS011;6881;49.962;7.718;2024-03-23T05:57:21;6.20;;;1.20;;
3781;SDS011;6881;49.962;7.718;2024-03-23T05:59:46;3.47;;;1.10;;
3781;SDS011;6881;49.962;7.718;2024-03-23T06:02:11;2.20;;;1.57;;
3781;SDS011;6881;49.962;7.718;2024-03-23T06:04:37;1.43;;;1.17;;
3781;SDS011;6881;49.962;7.718;2024-03-23T06:07:02;2.73;;;1.50;;
3781;SDS011;6881;49.962;7.718;2024-03-23T06:09:28;2.33;;;1.60;;
3781;SDS011;6881;49.962;7.718;2024-03-23T06:11:56;2.77;;;1.90;;
3781;SDS011;6881;49.962;7.718;2024-03-23T06:14:21;3.43;;;1.77;;
3781;SDS011;6881;49.962;7.718;2024-03-23T06:16:47;4.00;;;2.40;;
3781;SDS011;6881;49.962;7.718;2024-03-23T06:19:12;2.90;;;2.60;;
3781;SDS011;6881;49.962;7.718;2024-03-23T06:21:37;3.67;;;2.37;;
3781;SDS011;6881;49.962;7.718;2024-03-23T06:24:08;4.70;;;2.50;;
3781;SDS011;6881;49.962;7.718;2024-03-23T06:26:33;4.23;;;2.90;;
3781;SDS011;6881;49.962;7.718;2024-03-23T06:28:59;5.73;;;3.20;;
3781;SDS011;6881;49.962;7.718;2024-03-23T06:31:24;4.03;;;3.00;;
3781;SDS011;6881;49.962;7.718;2024-03-23T06:33:49;4.93;;;3.27;;
3781;SDS011;6881;49.962;7.718;2024-03-23T06:36:15;3.70;;;2.40;;
3781;SDS011;6881;49.962;7.718;2024-03-23T06:38:40;9.03;;;4.20;;
3781;SDS011;6881;49.962;7.718;2024-03-23T06:41:05;3.00;;;2.63;;
3781;SDS011;6881;49.962;7.718;2024-03-23T06:43:31;7.87;;;3.03;;
3781;SDS011;6881;49.962;7.718;2024-03-23T06:45:56;4.00;;;2.80;;
3781;SDS011;6881;49.962;7.718;2024-03-23T06:48:22;5.27;;;3.27;;
3781;SDS011;6881;49.962;7.718;2024-03-23T06:50:47;7.70;;;3.40;;
3781;SDS011;6881;49.962;7.718;2024-03-23T06:53:13;5.47;;;2.30;;
3781;SDS011;6881;49.962;7.718;2024-03-23T06:55:39;5.30;;;3.30;;
3781;SDS011;6881;49.962;7.718;2024-03-23T06:58:04;5.43;;;3.60;;
3781;SDS011;6881;49.962;7.718;2024-03-23T07:00:30;4.07;;;2.33;;
3781;SDS011;6881;49.962;7.718;2024-03-23T07:02:55;3.70;;;2.80;;
3781;SDS011;6881;49.962;7.718;2024-03-23T07:05:20;5.33;;;2.83;;
3781;SDS011;6881;49.962;7.718;2024-03-23T07:07:46;3.20;;;2.57;;
3781;SDS011;6881;49.962;7.718;2024-03-23T07:10:11;4.20;;;2.80;;
3781;SDS011;6881;49.962;7.718;2024-03-23T07:12:36;4.67;;;3.23;;
3781;SDS011;6881;49.962;7.718;2024-03-23T07:15:02;9.73;;;4.27;;
3781;SDS011;6881;49.962;7.718;2024-03-23T07:17:27;7.50;;;3.57;;
3781;SDS011;6881;49.962;7.718;2024-03-23T07:19:53;6.27;;;4.67;;
3781;SDS011;6881;49.962;7.718;2024-03-23T07:22:18;6.00;;;4.27;;
3781;SDS011;6881;49.962;7.718;2024-03-23T07:24:43;6.47;;;4.20;;
3781;SDS011;6881;49.962;7.718;2024-03-23T07:27:09;6.03;;;4.70;;
3781;SDS011;6881;49.962;7.718;2024-03-23T07:29:35;8.60;;;4.67;;
3781;SDS011;6881;49.962;7.718;2024-03-23T07:32:00;6.37;;;3.30;;
3781;SDS011;6881;49.962;7.718;2024-03-23T07:34:26;8.70;;;3.07;;
3781;SDS011;6881;49.962;7.718;2024-03-23T07:36:51;5.80;;;3.00;;
3781;SDS011;6881;49.962;7.718;2024-03-23T07:39:16;7.07;;;3.30;;
3781;SDS011;6881;49.962;7.718;2024-03-23T07:41:44;5.70;;;3.00;;
3781;SDS011;6881;49.962;7.718;2024-03-23T07:44:10;5.37;;;3.23;;
3781;SDS011;6881;49.962;7.718;2024-03-23T07:46:35;6.10;;;3.20;;
3781;SDS011;6881;49.962;7.718;2024-03-23T07:49:00;4.80;;;3.00;;
3781;SDS011;6881;49.962;7.718;2024-03-23T07:51:25;4.70;;;3.27;;
3781;SDS011;6881;49.962;7.718;2024-03-23T07:53:51;5.20;;;2.90;;
3781;SDS011;6881;49.962;7.718;2024-03-23T07:56:17;4.47;;;3.10;;
3781;SDS011;6881;49.962;7.718;2024-03-23T07:58:43;6.73;;;3.93;;
3781;SDS011;6881;49.962;7.718;2024-03-23T08:01:11;4.53;;;3.17;;
3781;SDS011;6881;49.962;7.718;2024-03-23T08:03:37;4.23;;;3.47;;
3781;SDS011;6881;49.962;7.718;2024-03-23T08:06:09;6.03;;;3.90;;
3781;SDS011;6881;49.962;7.718;2024-03-23T08:08:35;6.97;;;3.90;;
3781;SDS011;6881;49.962;7.718;2024-03-23T08:11:00;5.43;;;3.67;;
3781;SDS011;6881;49.962;7.718;2024-03-23T08:13:26;5.07;;;3.40;;
3781;SDS011;6881;49.962;7.718;2024-03-23T08:15:51;7.40;;;3.37;;
3781;SDS011;6881;49.962;7.718;2024-03-23T08:18:16;5.10;;;2.97;;
3781;SDS011;6881;49.962;7.718;2024-03-23T08:20:41;9.83;;;3.87;;
3781;SDS011;6881;49.962;7.718;2024-03-23T08:23:07;5.33;;;3.10;;
3781;SDS011;6881;49.962;7.718;2024-03-23T08:25:32;4.03;;;3.63;;
3781;SDS011;6881;49.962;7.718;2024-03-23T08:27:58;6.77;;;3.50;;
3781;SDS011;6881;49.962;7.718;2024-03-23T08:30:24;8.27;;;3.90;;
3781;SDS011;6881;49.962;7.718;2024-03-23T08:32:49;4.93;;;2.90;;
3781;SDS011;6881;49.962;7.718;2024-03-23T08:35:14;7.13;;;3.10;;
3781;SDS011;6881;49.962;7.718;2024-03-23T08:37:40;5.63;;;3.10;;
3781;SDS011;6881;49.962;7.718;2024-03-23T08:40:05;6.40;;;3.30;;
3781;SDS011;6881;49.962;7.718;2024-03-23T08:42:31;7.17;;;3.40;;
3781;SDS011;6881;49.962;7.718;2024-03-23T08:44:56;6.97;;;3.07;;
3781;SDS011;6881;49.962;7.718;2024-03-23T08:47:22;3.70;;;2.70;;
3781;SDS011;6881;49.962;7.718;2024-03-23T08:49:47;5.20;;;3.10;;
3781;SDS011;6881;49.962;7.718;2024-03-23T08:52:12;6.10;;;3.20;;
3781;SDS011;6881;49.962;7.718;2024-03-23T08:54:37;7.23;;;3.90;;
3781;SDS011;6881;49.962;7.718;2024-03-23T08:57:03;6.17;;;2.60;;
3781;SDS011;6881;49.962;7.718;2024-03-23T08:59:28;8.73;;;3.57;;
3781;SDS011;6881;49.962;7.718;2024-03-23T09:01:53;7.17;;;4.10;;
3781;SDS011;6881;49.962;7.718;2024-03-23T09:04:19;7.13;;;4.80;;
3781;SDS011;6881;49.962;7.718;2024-03-23T09:06:44;6.70;;;4.10;;
3781;SDS011;6881;49.962;7.718;2024-03-23T09:09:10;4.90;;;3.80;;
3781;SDS011;6881;49.962;7.718;2024-03-23T09:11:35;6.13;;;3.87;;
3781;SDS011;6881;49.962;7.718;2024-03-23T09:14:00;8.43;;;3.90;;
3781;SDS011;6881;49.962;7.718;2024-03-23T09:16:26;5.30;;;3.60;;
3781;SDS011;6881;49.962;7.718;2024-03-23T09:18:51;7.63;;;3.33;;
3781;SDS011;6881;49.962;7.718;2024-03-23T09:21:17;4.40;;;3.73;;
3781;SDS011;6881;49.962;7.718;2024-03-23T09:23:45;6.97;;;4.17;;
3781;SDS011;6881;49.962;7.718;2024-03-23T09:26:11;6.20;;;3.40;;
3781;SDS011;6881;49.962;7.718;2024-03-23T09:28:36;5.27;;;3.70;;
3781;SDS011;6881;49.962;7.718;2024-03-23T09:31:05;5.67;;;4.23;;
3781;SDS011;6881;49.962;7.718;2024-03-23T09:33:32;6.37;;;3.50;;
3781;SDS011;6881;49.962;7.718;2024-03-23T09:35:57;5.40;;;3.23;;
3781;SDS011;6881;49.962;7.718;2024-03-23T09:38:23;5.60;;;3.70;;
3781;SDS011;6881;49.962;7.718;2024-03-23T09:40:49;8.83;;;3.73;;
3781;SDS011;6881;49.962;7.718;2024-03-23T09:43:18;6.00;;;3.50;;
3781;SDS011;6881;49.962;7.718;2024-03-23T09:45:44;4.03;;;3.03;;
3781;SDS011;6881;49.962;7.718;2024-03-23T09:48:10;3.73;;;2.13;;
3781;SDS011;6881;49.962;7.718;2024-03-23T09:50:37;2.10;;;1.80;;
3781;SDS011;6881;49.962;7.718;2024-03-23T09:53:03;3.10;;;2.03;;
3781;SDS011;6881;49.962;7.718;2024-03-23T09:55:29;6.67;;;2.00;;
3781;SDS011;6881;49.962;7.718;2024-03-23T09:57:54;3.53;;;2.03;;
3781;SDS011;6881;49.962;7.718;2024-03-23T10:00:20;3.70;;;2.00;;
3781;SDS011;6881;49.962;7.718;2024-03-23T10:02:45;4.00;;;2.10;;
3781;SDS011;6881;49.962;7.718;2024-03-23T10:05:20;4.17;;;2.10;;
3781;SDS011;6881;49.962;7.718;2024-03-23T10:07:46;3.33;;;2.43;;
3781;SDS011;6881;49.962;7.718;2024-03-23T10:10:12;3.50;;;2.20;;
3781;SDS011;6881;49.962;7.718;2024-03-23T10:12:39;4.50;;;2.20;;
3781;SDS011;6881;49.962;7.718;2024-03-23T10:15:21;2.93;;;2.13;;
3781;SDS011;6881;49.962;7.718;2024-03-23T10:17:50;4.87;;;2.50;;
3781;SDS011;6881;49.962;7.718;2024-03-23T10:20:19;7.27;;;2.77;;
3781;SDS011;6881;49.962;7.718;2024-03-23T10:22:45;6.47;;;3.47;;
3781;SDS011;6881;49.962;7.718;2024-03-23T10:25:11;2.13;;;1.27;;
3781;SDS011;6881;49.962;7.718;2024-03-23T10:27:37;5.43;;;2.70;;
3781;SDS011;6881;49.962;7.718;2024-03-23T10:30:12;5.67;;;2.10;;
3781;SDS011;6881;49.962;7.718;2024-03-23T10:32:39;4.83;;;3.60;;
3781;SDS011;6881;49.962;7.718;2024-03-23T10:35:14;5.50;;;3.37;;
3781;SDS011;6881;49.962;7.718;2024-03-23T10:37:41;8.47;;;3.60;;
3781;SDS011;6881;49.962;7.718;2024-03-23T10:40:07;6.63;;;5.03;;
3781;SDS011;6881;49.962;7.718;2024-03-23T10:42:34;6.43;;;4.60;;
3781;SDS011;6881;49.962;7.718;2024-03-23T10:45:00;8.53;;;4.00;;
3781;SDS011;6881;49.962;7.718;2024-03-23T10:47:25;6.93;;;5.57;;
3781;SDS011;6881;49.962;7.718;2024-03-23T10:49:51;6.83;;;4.17;;
3781;SDS011;6881;49.962;7.718;2024-03-23T10:52:16;5.93;;;4.37;;
3781;SDS011;6881;49.962;7.718;2024-03-23T10:54:41;8.60;;;4.70;;
3781;SDS011;6881;49.962;7.718;2024-03-23T10:57:14;6.40;;;4.17;;
3781;SDS011;6881;49.962;7.718;2024-03-23T10:59:41;4.73;;;3.37;;
3781;SDS011;6881;49.962;7.718;2024-03-23T11:02:07;16.40;;;4.00;;
3781;SDS011;6881;49.962;7.718;2024-03-23T11:04:43;7.90;;;3.70;;
3781;SDS011;6881;49.962;7.718;2024-03-23T11:09:50;6.30;;;4.17;;
3781;SDS011;6881;49.962;7.718;2024-03-23T11:14:48;4.67;;;3.13;;
3781;SDS011;6881;49.962;7.718;2024-03-23T11:17:18;6.57;;;3.70;;
3781;SDS011;6881;49.962;7.718;2024-03-23T11:19:44;6.70;;;3.70;;
3781;SDS011;6881;49.962;7.718;2024-03-23T11:22:09;5.93;;;4.00;;
3781;SDS011;6881;49.962;7.718;2024-03-23T11:24:35;6.63;;;3.70;;
3781;SDS011;6881;49.962;7.718;2024-03-23T11:27:00;5.07;;;3.93;;
3781;SDS011;6881;49.962;7.718;2024-03-23T11:29:28;5.97;;;3.87;;
3781;SDS011;6881;49.962;7.718;2024-03-23T11:31:54;4.80;;;3.30;;
3781;SDS011;6881;49.962;7.718;2024-03-23T11:34:20;8.50;;;3.00;;
3781;SDS011;6881;49.962;7.718;2024-03-23T11:36:46;5.83;;;4.00;;
3781;SDS011;6881;49.962;7.718;2024-03-23T11:39:12;5.40;;;3.40;;
3781;SDS011;6881;49.962;7.718;2024-03-23T11:41:48;4.90;;;3.17;;
3781;SDS011;6881;49.962;7.718;2024-03-23T11:46:42;5.50;;;3.20;;
3781;SDS011;6881;49.962;7.718;2024-03-23T11:49:19;5.50;;;3.07;;
3781;SDS011;6881;49.962;7.718;2024-03-23T11:51:48;8.60;;;3.33;;
3781;SDS011;6881;49.962;7.718;2024-03-23T11:54:13;6.60;;;3.20;;
3781;SDS011;6881;49.962;7.718;2024-03-23T11:56:39;4.70;;;3.27;;
3781;SDS011;6881;49.962;7.718;2024-03-23T11:59:04;6.07;;;2.63;;
3781;SDS011;6881;49.962;7.718;2024-03-23T12:01:30;5.20;;;2.50;;
3781;SDS011;6881;49.962;7.718;2024-03-23T12:03:55;6.67;;;2.87;;
3781;SDS011;6881;49.962;7.718;2024-03-23T12:06:21;6.50;;;2.07;;
3781;SDS011;6881;49.962;7.718;2024-03-23T12:08:46;2.00;;;0.97;;
3781;SDS011;6881;49.962;7.718;2024-03-23T12:11:13;4.53;;;0.70;;
3781;SDS011;6881;49.962;7.718;2024-03-23T12:13:41;2.50;;;1.03;;
3781;SDS011;6881;49.962;7.718;2024-03-23T12:16:11;3.50;;;1.63;;
3781;SDS011;6881;49.962;7.718;2024-03-23T12:18:41;5.83;;;3.57;;
3781;SDS011;6881;49.962;7.718;2024-03-23T12:21:08;8.40;;;3.67;;
3781;SDS011;6881;49.962;7.718;2024-03-23T12:23:33;5.93;;;3.87;;
3781;SDS011;6881;49.962;7.718;2024-03-23T12:25:59;6.40;;;3.90;;
3781;SDS011;6881;49.962;7.718;2024-03-23T12:28:25;9.50;;;4.83;;
3781;SDS011;6881;49.962;7.718;2024-03-23T12:30:51;8.03;;;4.70;;
3781;SDS011;6881;49.962;7.718;2024-03-23T12:33:17;3.83;;;1.43;;
3781;SDS011;6881;49.962;7.718;2024-03-23T12:35:42;7.63;;;5.23;;
3781;SDS011;6881;49.962;7.718;2024-03-23T12:38:08;5.57;;;2.63;;
3781;SDS011;6881;49.962;7.718;2024-03-23T12:40:33;6.63;;;3.57;;
3781;SDS011;6881;49.962;7.718;2024-03-23T12:42:58;7.37;;;4.80;;
3781;SDS011;6881;49.962;7.718;2024-03-23T12:45:24;4.40;;;2.70;;
3781;SDS011;6881;49.962;7.718;2024-03-23T12:47:49;5.40;;;5.00;;
3781;SDS011;6881;49.962;7.718;2024-03-23T12:50:14;9.03;;;7.33;;
3781;SDS011;6881;49.962;7.718;2024-03-23T12:52:40;4.57;;;2.77;;
3781;SDS011;6881;49.962;7.718;2024-03-23T12:55:05;3.43;;;3.13;;
3781;SDS011;6881;49.962;7.718;2024-03-23T12:57:31;2.00;;;1.80;;
3781;SDS011;6881;49.962;7.718;2024-03-23T12:59:57;2.23;;;1.10;;
3781;SDS011;6881;49.962;7.718;2024-03-23T13:02:23;3.10;;;1.27;;
3781;SDS011;6881;49.962;7.718;2024-03-23T13:04:54;1.03;;;0.90;;
3781;SDS011;6881;49.962;7.718;2024-03-23T13:07:20;1.67;;;0.80;;
3781;SDS011;6881;49.962;7.718;2024-03-23T13:09:46;1.40;;;1.00;;
3781;SDS011;6881;49.962;7.718;2024-03-23T13:12:12;1.40;;;1.00;;
3781;SDS011;6881;49.962;7.718;2024-03-23T13:14:38;1.73;;;0.70;;
3781;SDS011;6881;49.962;7.718;2024-03-23T13:17:04;1.10;;;0.80;;
3781;SDS011;6881;49.962;7.718;2024-03-23T13:19:29;1.40;;;1.23;;
3781;SDS011;6881;49.962;7.718;2024-03-23T13:21:55;3.37;;;1.10;;
3781;SDS011;6881;49.962;7.718;2024-03-23T13:24:27;2.10;;;0.77;;
3781;SDS011;6881;49.962;7.718;2024-03-23T13:26:53;2.07;;;0.80;;
3781;SDS011;6881;49.962;7.718;2024-03-23T13:29:19;2.30;;;1.10;;
3781;SDS011;6881;49.962;7.718;2024-03-23T13:31:45;1.77;;;1.00;;
3781;SDS011;6881;49.962;7.718;2024-03-23T13:34:15;1.10;;;0.80;;
3781;SDS011;6881;49.962;7.718;2024-03-23T13:36:44;2.00;;;1.10;;
3781;SDS011;6881;49.962;7.718;2024-03-23T13:39:10;1.40;;;0.73;;
3781;SDS011;6881;49.962;7.718;2024-03-23T13:41:39;1.67;;;0.93;;
3781;SDS011;6881;49.962;7.718;2024-03-23T13:44:08;2.40;;;1.53;;
3781;SDS011;6881;49.962;7.718;2024-03-23T13:46:37;1.90;;;0.90;;
3781;SDS011;6881;49.962;7.718;2024-03-23T13:49:03;1.73;;;1.13;;
3781;SDS011;6881;49.962;7.718;2024-03-23T13:51:29;4.30;;;0.97;;
3781;SDS011;6881;49.962;7.718;2024-03-23T13:53:55;3.07;;;1.57;;
3781;SDS011;6881;49.962;7.718;2024-03-23T13:56:21;5.43;;;1.77;;
3781;SDS011;6881;49.962;7.718;2024-03-23T13:58:47;1.97;;;1.30;;
3781;SDS011;6881;49.962;7.718;2024-03-23T14:01:13;2.53;;;0.90;;
3781;SDS011;6881;49.962;7.718;2024-03-23T14:03:39;2.10;;;1.07;;
3781;SDS011;6881;49.962;7.718;2024-03-23T14:06:05;1.87;;;1.00;;
3781;SDS011;6881;49.962;7.718;2024-03-23T14:08:32;0.90;;;0.70;;
3781;SDS011;6881;49.962;7.718;2024-03-23T14:10:59;2.37;;;1.10;;
3781;SDS011;6881;49.962;7.718;2024-03-23T14:13:24;1.53;;;0.80;;
3781;SDS011;6881;49.962;7.718;2024-03-23T14:15:55;1.93;;;0.90;;
3781;SDS011;6881;49.962;7.718;2024-03-23T14:18:21;1.30;;;0.70;;
3781;SDS011;6881;49.962;7.718;2024-03-23T14:20:48;4.77;;;0.77;;
3781;SDS011;6881;49.962;7.718;2024-03-23T14:23:13;1.10;;;1.00;;
3781;SDS011;6881;49.962;7.718;2024-03-23T14:25:39;1.70;;;0.73;;
3781;SDS011;6881;49.962;7.718;2024-03-23T14:28:04;1.80;;;0.90;;
3781;SDS011;6881;49.962;7.718;2024-03-23T14:30:29;1.97;;;0.83;;
3781;SDS011;6881;49.962;7.718;2024-03-23T14:32:56;1.57;;;0.80;;
3781;SDS011;6881;49.962;7.718;2024-03-23T14:35:21;1.77;;;0.67;;
3781;SDS011;6881;49.962;7.718;2024-03-23T14:37:47;1.40;;;1.13;;
3781;SDS011;6881;49.962;7.718;2024-03-23T14:40:12;1.13;;;0.67;;
3781;SDS011;6881;49.962;7.718;2024-03-23T14:42:38;1.50;;;0.80;;
3781;SDS011;6881;49.962;7.718;2024-03-23T14:45:03;1.90;;;1.03;;
3781;SDS011;6881;49.962;7.718;2024-03-23T14:47:30;5.47;;;1.67;;
3781;SDS011;6881;49.962;7.718;2024-03-23T14:49:56;3.20;;;0.90;;
3781;SDS011;6881;49.962;7.718;2024-03-23T14:52:23;1.20;;;0.77;;
3781;SDS011;6881;49.962;7.718;2024-03-23T14:54:49;1.17;;;0.90;;
3781;SDS011;6881;49.962;7.718;2024-03-23T14:57:14;2.60;;;1.27;;
3781;SDS011;6881;49.962;7.718;2024-03-23T14:59:39;2.07;;;1.07;;
3781;SDS011;6881;49.962;7.718;2024-03-23T15:02:05;2.40;;;1.10;;
3781;SDS011;6881;49.962;7.718;2024-03-23T15:04:33;1.33;;;1.00;;
3781;SDS011;6881;49.962;7.718;2024-03-23T15:06:59;4.93;;;1.90;;
3781;SDS011;6881;49.962;7.718;2024-03-23T15:09:25;2.50;;;1.77;;
3781;SDS011;6881;49.962;7.718;2024-03-23T15:11:50;1.60;;;1.20;;
3781;SDS011;6881;49.962;7.718;2024-03-23T15:14:15;2.17;;;1.30;;
3781;SDS011;6881;49.962;7.718;2024-03-23T15:16:40;3.03;;;1.27;;
3781;SDS011;6881;49.962;7.718;2024-03-23T15:19:07;1.50;;;1.03;;
3781;SDS011;6881;49.962;7.718;2024-03-23T15:21:33;3.03;;;1.13;;
3781;SDS011;6881;49.962;7.718;2024-03-23T15:23:59;1.70;;;0.77;;
3781;SDS011;6881;49.962;7.718;2024-03-23T15:26:24;1.17;;;0.77;;
3781;SDS011;6881;49.962;7.718;2024-03-23T15:28:49;2.70;;;0.60;;
3781;SDS011;6881;49.962;7.718;2024-03-23T15:31:23;1.07;;;0.67;;
3781;SDS011;6881;49.962;7.718;2024-03-23T15:33:49;1.33;;;0.90;;
3781;SDS011;6881;49.962;7.718;2024-03-23T15:36:14;1.80;;;0.97;;
3781;SDS011;6881;49.962;7.718;2024-03-23T15:38:39;1.30;;;0.90;;
3781;SDS011;6881;49.962;7.718;2024-03-23T15:41:05;1.80;;;1.23;;
3781;SDS011;6881;49.962;7.718;2024-03-23T15:43:30;2.50;;;0.97;;
3781;SDS011;6881;49.962;7.718;2024-03-23T15:46:00;2.37;;;1.07;;
3781;SDS011;6881;49.962;7.718;2024-03-23T15:48:29;6.90;;;2.13;;
3781;SDS011;6881;49.962;7.718;2024-03-23T15:50:55;4.90;;;1.80;;
3781;SDS011;6881;49.962;7.718;2024-03-23T15:53:22;1.03;;;0.83;;
3781;SDS011;6881;49.962;7.718;2024-03-23T15:55:55;2.30;;;1.63;;
3781;SDS011;6881;49.962;7.718;2024-03-23T15:58:23;6.20;;;1.97;;
3781;SDS011;6881;49.962;7.718;2024-03-23T16:01:02;3.17;;;1.77;;
3781;SDS011;6881;49.962;7.718;2024-03-23T16:03:29;2.27;;;1.50;;
3781;SDS011;6881;49.962;7.718;2024-03-23T16:05:59;5.83;;;2.47;;